Archival Weather

Chicago O'Hare International

Chicago, Illinois (KORD)

Report from: Sunday, March 6, 2022 6:51 AM CST
Current time: Saturday, February 4, 2023 9:55 PM CST

Current weather
Weather history
Weather forecast

Temperature2.8°C (37.0°F)
Wind chill-3.9°C (24.9°F)
Dew point-2.2°C (28.0°F)
Winds 24 kts (12.3 m/s, 27.6 mph) West-Southwest (250°)
Wind gusts 42 kts (21.6 m/s, 48.3 mph)
Peak wind 42 kts (21.6 m/s, 48.3 mph) West-Southwest (240°) at 06:51
Visibility10 mi. (16.1 km)
Clouds Ceiling: Overcast 2,000 ft. (610 m)
Altimeter29.84 in.Hg (1010 mB)
Relative humidity70 %
Density altitude-1,307 ft. (-398 m)
Sea-level pressure101.1 kPa (1011 mB, 29.84 in.Hg)
Remarks System requires maintenance
Automated weather observing station with precipitation discriminator
Flight conditions Marginal Visual Meteorological Conditions
Raw dataKORD 061251Z 25024G42KT 10SM OVC020 03/M02 A2984 RMK AO2 PK WND 24042/1251 SLP106 T00281022 $
An unhandled exception has occurred. See browser dev tools for details. Reload 🗙